Time;durP1;ratioP1;P1;durP2;ratioP2;P2;SDS_P1;SDS_P2;PMS_P1;PMS_P2;Temp;Humidity;BMP_temperature;BMP_pressure;BME280_temperature;BME280_humidity;BME280_pressure;Samples;Min_cycle;Max_cycle;Signal;HPM_P1;HPM_P2
2021/06/23 00:00:21;;;;;;;32.03;16.75;;;;;;;;;;5048605;28;20377;-65
2021/06/23 00:02:49;;;;;;;34.33;17.45;;;;;;;;;;5022684;28;20057;-65
2021/06/23 00:05:15;;;;;;;30.60;16.60;;;;;;;;;;5018467;28;20048;-65
2021/06/23 00:07:42;;;;;;;30.48;17.48;;;;;;;;;;5028633;28;20033;-65
2021/06/23 00:10:08;;;;;;;32.65;15.30;;;;;;;;;;5027993;28;20064;-65
2021/06/23 00:12:34;;;;;;;33.97;17.35;;;;;;;;;;5026931;28;20416;-65
2021/06/23 00:15:00;;;;;;;33.03;17.40;;;;;;;;;;5023370;28;20436;-65
2021/06/23 00:17:29;;;;;;;31.13;16.17;;;;;;;;;;5014276;28;20037;-65
2021/06/23 00:19:55;;;;;;;34.80;16.60;;;;;;;;;;5027130;28;20112;-65
2021/06/23 00:22:21;;;;;;;29.88;16.13;;;;;;;;;;5034499;28;20021;-65
2021/06/23 00:24:47;;;;;;;32.60;16.08;;;;;;;;;;5025192;28;20113;-65
2021/06/23 00:27:13;;;;;;;37.25;16.77;;;;;;;;;;5019008;28;20022;-65
2021/06/23 00:29:39;;;;;;;30.15;16.45;;;;;;;;;;5024607;28;20022;-65
2021/06/23 00:32:10;;;;;;;29.73;16.45;;;;;;;;;;5025671;28;20022;-65
2021/06/23 00:34:37;;;;;;;29.08;16.15;;;;;;;;;;5018011;28;20045;-65
2021/06/23 00:37:03;;;;;;;29.40;15.93;;;;;;;;;;5001931;28;20030;-65
2021/06/23 00:39:29;;;;;;;29.77;17.33;;;;;;;;;;5007051;28;20516;-65
2021/06/23 00:41:55;;;;;;;34.92;18.45;;;;;;;;;;5035174;28;20022;-65
2021/06/23 00:44:21;;;;;;;31.58;16.33;;;;;;;;;;5018580;28;20099;-65
2021/06/23 00:46:48;;;;;;;30.27;17.40;;;;;;;;;;5025213;28;20042;-65
2021/06/23 00:49:14;;;;;;;32.38;16.67;;;;;;;;;;5021390;28;20029;-65
2021/06/23 00:51:40;;;;;;;29.60;16.13;;;;;;;;;;5017392;28;20110;-65
2021/06/23 00:54:10;;;;;;;29.92;15.60;;;;;;;;;;5019598;28;20120;-65
2021/06/23 00:56:36;;;;;;;31.88;15.77;;;;;;;;;;5028113;28;20288;-65
2021/06/23 00:59:03;;;;;;;32.55;17.45;;;;;;;;;;5023759;28;20079;-65
2021/06/23 01:01:31;;;;;;;31.33;15.95;;;;;;;;;;5023989;28;20083;-65
2021/06/23 01:03:57;;;;;;;36.20;18.02;;;;;;;;;;5027749;28;20025;-65
2021/06/23 01:06:23;;;;;;;35.40;16.92;;;;;;;;;;5028116;28;20499;-65
2021/06/23 01:08:50;;;;;;;31.60;16.20;;;;;;;;;;5030345;28;20037;-65
2021/06/23 01:11:16;;;;;;;32.17;17.80;;;;;;;;;;5028072;28;20033;-65
2021/06/23 01:14:01;;;;;;;29.58;15.93;;;;;;;;;;5024609;28;20029;-65
2021/06/23 01:16:28;;;;;;;36.20;16.77;;;;;;;;;;5025081;28;20029;-65
2021/06/23 01:18:55;;;;;;;29.77;17.42;;;;;;;;;;5029729;28;20040;-65
2021/06/23 01:21:21;;;;;;;33.42;16.10;;;;;;;;;;5027610;28;20052;-65
2021/06/23 01:23:47;;;;;;;30.90;16.17;;;;;;;;;;5029380;28;20033;-65
2021/06/23 01:26:13;;;;;;;26.63;15.30;;;;;;;;;;5029309;28;20095;-65
2021/06/23 01:28:39;;;;;;;30.85;16.13;;;;;;;;;;5024996;28;20030;-65
2021/06/23 01:31:05;;;;;;;33.70;15.95;;;;;;;;;;5026589;28;20597;-65
2021/06/23 01:33:34;;;;;;;30.33;15.75;;;;;;;;;;5025789;28;20041;-65
2021/06/23 01:36:00;;;;;;;25.65;14.77;;;;;;;;;;5029020;28;20026;-65
2021/06/23 01:38:27;;;;;;;25.65;15.90;;;;;;;;;;5024366;28;20034;-65
2021/06/23 01:40:53;;;;;;;29.60;16.65;;;;;;;;;;5029328;28;20050;-65
2021/06/23 01:43:21;;;;;;;33.67;17.02;;;;;;;;;;5022652;28;20029;-65
2021/06/23 01:45:47;;;;;;;28.70;16.15;;;;;;;;;;4996830;28;20075;-65
2021/06/23 01:48:14;;;;;;;32.03;16.40;;;;;;;;;;5023678;28;20025;-65
2021/06/23 01:50:40;;;;;;;31.50;15.73;;;;;;;;;;5021997;28;20010;-65
2021/06/23 01:53:06;;;;;;;31.13;15.55;;;;;;;;;;5018031;28;20038;-65
2021/06/23 01:55:34;;;;;;;31.00;16.58;;;;;;;;;;5024384;28;20029;-65
2021/06/23 01:58:01;;;;;;;32.20;15.40;;;;;;;;;;5023536;28;20018;-65
2021/06/23 02:00:33;;;;;;;30.48;14.93;;;;;;;;;;5020096;28;20026;-65
2021/06/23 02:03:01;;;;;;;31.20;15.57;;;;;;;;;;5025802;28;20036;-65
2021/06/23 02:05:47;;;;;;;35.53;16.77;;;;;;;;;;4999470;28;20112;-65
2021/06/23 02:08:29;;;;;;;26.60;15.15;;;;;;;;;;5026113;28;20029;-65
2021/06/23 02:11:14;;;;;;;28.40;15.75;;;;;;;;;;5014197;28;20034;-65
2021/06/23 02:13:43;;;;;;;29.77;15.77;;;;;;;;;;5026734;28;20022;-65
2021/06/23 02:16:10;;;;;;;31.05;15.75;;;;;;;;;;5022669;28;20057;-65
2021/06/23 02:18:37;;;;;;;29.02;15.60;;;;;;;;;;5023173;28;20057;-65
2021/06/23 02:21:03;;;;;;;32.15;16.30;;;;;;;;;;5010348;28;20377;-65
2021/06/23 02:23:30;;;;;;;32.53;17.40;;;;;;;;;;5024827;28;20020;-65
2021/06/23 02:25:57;;;;;;;30.17;16.48;;;;;;;;;;5016589;28;20033;-65
2021/06/23 02:28:23;;;;;;;33.17;16.70;;;;;;;;;;5024872;28;20029;-65
2021/06/23 02:30:50;;;;;;;31.40;17.40;;;;;;;;;;5028140;28;20053;-65
2021/06/23 02:33:18;;;;;;;30.63;16.35;;;;;;;;;;5017243;28;20133;-65
2021/06/23 02:35:44;;;;;;;30.95;16.55;;;;;;;;;;5016128;28;20503;-65
2021/06/23 02:38:10;;;;;;;32.53;17.15;;;;;;;;;;5019151;28;20082;-65
2021/06/23 02:40:37;;;;;;;32.58;17.08;;;;;;;;;;5026877;28;20073;-65
2021/06/23 02:43:04;;;;;;;27.63;15.40;;;;;;;;;;5019743;28;20030;-65
2021/06/23 02:45:30;;;;;;;32.30;16.73;;;;;;;;;;5025591;28;20042;-65
2021/06/23 02:47:57;;;;;;;38.35;16.83;;;;;;;;;;5026788;28;20106;-65
2021/06/23 02:50:24;;;;;;;29.48;15.93;;;;;;;;;;5016264;28;20541;-68
2021/06/23 02:52:50;;;;;;;31.00;15.93;;;;;;;;;;5011903;28;20030;-65
2021/06/23 02:55:19;;;;;;;31.15;15.68;;;;;;;;;;5017337;28;20489;-65
2021/06/23 02:57:47;;;;;;;33.45;17.25;;;;;;;;;;5013577;28;20049;-65
2021/06/23 03:00:14;;;;;;;33.85;17.23;;;;;;;;;;5016593;28;20063;-65
2021/06/23 03:02:40;;;;;;;38.00;17.33;;;;;;;;;;5019535;28;20053;-65
2021/06/23 03:05:06;;;;;;;36.38;16.98;;;;;;;;;;5016052;28;20041;-65
2021/06/23 03:07:32;;;;;;;28.42;15.88;;;;;;;;;;4990328;28;20066;-65
2021/06/23 03:10:05;;;;;;;32.63;15.75;;;;;;;;;;5017321;28;20036;-65
2021/06/23 03:12:31;;;;;;;29.80;16.10;;;;;;;;;;5012951;28;20461;-65
2021/06/23 03:14:57;;;;;;;35.20;14.32;;;;;;;;;;5022134;28;20046;-65
2021/06/23 03:17:23;;;;;;;31.65;16.00;;;;;;;;;;5024444;28;20097;-65
2021/06/23 03:19:49;;;;;;;33.85;17.08;;;;;;;;;;5007217;28;20116;-65
2021/06/23 03:22:15;;;;;;;36.47;15.48;;;;;;;;;;5024814;28;20082;-65
2021/06/23 03:24:42;;;;;;;28.25;14.13;;;;;;;;;;5009973;28;20064;-65
2021/06/23 03:27:08;;;;;;;31.25;16.27;;;;;;;;;;5015662;28;20014;-65
2021/06/23 03:29:35;;;;;;;36.00;16.33;;;;;;;;;;5024118;28;20026;-65
2021/06/23 03:32:01;;;;;;;30.48;15.13;;;;;;;;;;5026402;28;20049;-65
2021/06/23 03:34:27;;;;;;;30.65;16.60;;;;;;;;;;5022763;28;20042;-66
2021/06/23 03:36:53;;;;;;;29.10;15.30;;;;;;;;;;5028399;28;20033;-65
2021/06/23 03:39:20;;;;;;;27.58;14.73;;;;;;;;;;5025025;28;20435;-65
2021/06/23 03:41:46;;;;;;;33.63;16.00;;;;;;;;;;5025754;28;20049;-65
2021/06/23 03:44:12;;;;;;;27.02;14.43;;;;;;;;;;5030105;28;20273;-65
2021/06/23 03:46:38;;;;;;;31.27;15.25;;;;;;;;;;5027470;28;20025;-65
2021/06/23 03:49:04;;;;;;;28.90;15.27;;;;;;;;;;5035774;28;20120;-65
2021/06/23 03:51:31;;;;;;;23.58;12.20;;;;;;;;;;5024609;28;20033;-65
2021/06/23 03:53:57;;;;;;;30.50;14.05;;;;;;;;;;5019884;28;20045;-65
2021/06/23 03:56:23;;;;;;;29.65;14.75;;;;;;;;;;5025903;28;20030;-65
2021/06/23 03:58:49;;;;;;;31.95;14.40;;;;;;;;;;5022067;28;20034;-65
2021/06/23 04:01:15;;;;;;;31.40;14.10;;;;;;;;;;5023882;28;20531;-65
2021/06/23 04:03:41;;;;;;;29.95;13.05;;;;;;;;;;5020989;28;20032;-65
2021/06/23 04:06:07;;;;;;;29.05;14.25;;;;;;;;;;5029001;28;20026;-65
2021/06/23 04:08:33;;;;;;;28.05;14.35;;;;;;;;;;5025339;28;20088;-65
2021/06/23 04:10:59;;;;;;;34.00;16.92;;;;;;;;;;5022862;28;20416;-65
2021/06/23 04:13:27;;;;;;;30.70;13.65;;;;;;;;;;5019758;28;20092;-65
2021/06/23 04:15:53;;;;;;;29.00;13.70;;;;;;;;;;5023283;28;20072;-65
2021/06/23 04:18:19;;;;;;;24.77;13.68;;;;;;;;;;5024702;28;20033;-65
2021/06/23 04:20:45;;;;;;;32.83;12.88;;;;;;;;;;5030281;28;20104;-65
2021/06/23 04:23:11;;;;;;;26.95;13.00;;;;;;;;;;5025978;28;20148;-65
2021/06/23 04:25:37;;;;;;;31.75;13.20;;;;;;;;;;5032778;28;20037;-65
2021/06/23 04:28:03;;;;;;;24.48;12.63;;;;;;;;;;5021707;28;20029;-66
2021/06/23 04:30:29;;;;;;;31.45;13.70;;;;;;;;;;5026339;28;20022;-66
2021/06/23 04:32:55;;;;;;;27.52;13.15;;;;;;;;;;5028156;28;20030;-65
2021/06/23 04:35:21;;;;;;;28.40;12.93;;;;;;;;;;5018609;28;20029;-66
2021/06/23 04:37:47;;;;;;;30.52;14.07;;;;;;;;;;4991946;28;20385;-66
2021/06/23 04:40:15;;;;;;;25.20;12.30;;;;;;;;;;5015543;28;20057;-67
2021/06/23 04:42:41;;;;;;;24.33;12.07;;;;;;;;;;5018030;28;20100;-67
2021/06/23 04:45:08;;;;;;;31.48;13.48;;;;;;;;;;5021342;28;20029;-66
2021/06/23 04:47:35;;;;;;;22.77;12.25;;;;;;;;;;5014863;28;20022;-66
2021/06/23 04:50:01;;;;;;;21.58;12.32;;;;;;;;;;5015612;28;20036;-66
2021/06/23 04:52:28;;;;;;;30.15;11.90;;;;;;;;;;5015373;28;20028;-65
2021/06/23 04:54:54;;;;;;;28.15;12.32;;;;;;;;;;5016040;28;20055;-66
2021/06/23 04:57:21;;;;;;;20.42;11.32;;;;;;;;;;5010086;28;20041;-66
2021/06/23 04:59:47;;;;;;;26.20;11.45;;;;;;;;;;5012383;28;20113;-67
2021/06/23 05:02:14;;;;;;;20.92;11.32;;;;;;;;;;5016094;28;20022;-66
2021/06/23 05:04:41;;;;;;;24.52;11.95;;;;;;;;;;5016030;28;20937;-66
2021/06/23 05:07:07;;;;;;;28.27;11.45;;;;;;;;;;5013585;28;20041;-66
2021/06/23 05:09:34;;;;;;;27.20;11.40;;;;;;;;;;4999635;28;20072;-66
2021/06/23 05:12:00;;;;;;;22.63;12.50;;;;;;;;;;5020981;28;20033;-66
2021/06/23 05:14:26;;;;;;;20.48;11.00;;;;;;;;;;5014822;28;20037;-66
2021/06/23 05:16:53;;;;;;;24.05;12.23;;;;;;;;;;5017021;28;20029;-66
2021/06/23 05:19:19;;;;;;;29.52;12.57;;;;;;;;;;5026482;28;20029;-66
2021/06/23 05:21:46;;;;;;;25.60;11.15;;;;;;;;;;5011368;28;20025;-66
2021/06/23 05:24:12;;;;;;;23.00;10.77;;;;;;;;;;5026131;28;20026;-65
2021/06/23 05:26:38;;;;;;;28.17;11.65;;;;;;;;;;5020846;28;20111;-67
2021/06/23 05:29:05;;;;;;;25.85;11.00;;;;;;;;;;5018651;28;20034;-66
2021/06/23 05:31:31;;;;;;;24.80;11.90;;;;;;;;;;5025488;28;20487;-66
2021/06/23 05:33:57;;;;;;;27.27;10.38;;;;;;;;;;5018914;28;20119;-66
2021/06/23 05:36:23;;;;;;;23.35;11.50;;;;;;;;;;5016553;28;20036;-66
2021/06/23 05:38:50;;;;;;;21.55;10.32;;;;;;;;;;5013439;28;20382;-66
2021/06/23 05:41:16;;;;;;;23.33;11.20;;;;;;;;;;5019262;28;20030;-65
2021/06/23 05:43:42;;;;;;;25.60;11.30;;;;;;;;;;5034384;28;20037;-66
2021/06/23 05:46:08;;;;;;;23.05;10.90;;;;;;;;;;5022094;28;20024;-65
2021/06/23 05:48:34;;;;;;;25.63;11.60;;;;;;;;;;5025928;28;20033;-66
2021/06/23 05:51:00;;;;;;;30.85;11.32;;;;;;;;;;5023678;28;20076;-65
2021/06/23 05:53:26;;;;;;;25.20;10.52;;;;;;;;;;5017427;28;20157;-65
2021/06/23 05:55:55;;;;;;;25.92;10.48;;;;;;;;;;5007055;28;20081;-65
2021/06/23 05:58:21;;;;;;;21.10;10.00;;;;;;;;;;5013696;28;20028;-66
2021/06/23 06:00:47;;;;;;;19.20;9.52;;;;;;;;;;5017555;28;20072;-66
2021/06/23 06:03:13;;;;;;;18.60;9.38;;;;;;;;;;5027878;28;20025;-66
2021/06/23 06:05:39;;;;;;;21.33;9.88;;;;;;;;;;5026395;28;20026;-66
2021/06/23 06:08:05;;;;;;;16.90;8.77;;;;;;;;;;5024251;28;20038;-66
2021/06/23 06:10:33;;;;;;;15.50;9.32;;;;;;;;;;5026242;28;20109;-66
2021/06/23 06:12:59;;;;;;;18.02;9.70;;;;;;;;;;5024881;28;20121;-65
2021/06/23 06:15:26;;;;;;;21.88;9.60;;;;;;;;;;5024953;28;20032;-66
2021/06/23 06:17:52;;;;;;;21.42;11.05;;;;;;;;;;5023090;28;20033;-65
2021/06/23 06:20:18;;;;;;;22.10;10.00;;;;;;;;;;5022085;28;20033;-66
2021/06/23 06:22:44;;;;;;;22.00;10.20;;;;;;;;;;5024576;28;20025;-65
2021/06/23 06:25:11;;;;;;;19.17;9.15;;;;;;;;;;5027909;28;20168;-65
2021/06/23 06:27:37;;;;;;;24.77;10.07;;;;;;;;;;5025888;28;20140;-66
2021/06/23 06:30:04;;;;;;;18.15;9.55;;;;;;;;;;5027285;28;20029;-65
2021/06/23 06:32:30;;;;;;;18.27;9.32;;;;;;;;;;5009620;28;20537;-65
2021/06/23 06:34:56;;;;;;;21.40;9.90;;;;;;;;;;5017577;28;20255;-66
2021/06/23 06:37:22;;;;;;;24.25;9.93;;;;;;;;;;4997663;28;20116;-65
2021/06/23 06:39:48;;;;;;;26.50;9.82;;;;;;;;;;5012123;28;20052;-65
2021/06/23 06:42:14;;;;;;;19.58;9.55;;;;;;;;;;5019215;28;20480;-65
2021/06/23 06:44:40;;;;;;;21.77;10.35;;;;;;;;;;5021282;28;20363;-65
2021/06/23 06:47:06;;;;;;;18.08;9.52;;;;;;;;;;5027865;28;20151;-65
2021/06/23 06:49:32;;;;;;;16.75;9.45;;;;;;;;;;5021843;28;20060;-65
2021/06/23 06:52:00;;;;;;;16.90;8.63;;;;;;;;;;5024201;28;20513;-65
2021/06/23 06:54:26;;;;;;;17.60;8.55;;;;;;;;;;5021858;28;20074;-65
2021/06/23 06:56:53;;;;;;;21.15;9.32;;;;;;;;;;5019726;28;20025;-65
2021/06/23 06:59:19;;;;;;;21.38;9.18;;;;;;;;;;5024858;28;20609;-65
2021/06/23 07:01:45;;;;;;;18.92;8.55;;;;;;;;;;5022618;28;20028;-65
2021/06/23 07:04:12;;;;;;;19.08;9.05;;;;;;;;;;5025705;28;20027;-65
2021/06/23 07:06:38;;;;;;;19.15;9.90;;;;;;;;;;5027267;28;20022;-65
2021/06/23 07:09:04;;;;;;;21.20;9.85;;;;;;;;;;5024074;28;20033;-65
2021/06/23 07:11:30;;;;;;;19.40;8.32;;;;;;;;;;5025948;28;20079;-65
2021/06/23 07:13:56;;;;;;;19.33;8.48;;;;;;;;;;5027989;28;20362;-65
2021/06/23 07:16:22;;;;;;;18.77;8.73;;;;;;;;;;5028260;28;20040;-65
2021/06/23 07:18:49;;;;;;;24.08;8.77;;;;;;;;;;5028007;28;20488;-65
2021/06/23 07:21:18;;;;;;;19.40;8.48;;;;;;;;;;5026595;28;20026;-65
2021/06/23 07:23:48;;;;;;;20.50;8.07;;;;;;;;;;5024694;28;20037;-65
2021/06/23 07:26:15;;;;;;;20.27;8.48;;;;;;;;;;5028029;28;20021;-65
2021/06/23 07:31:09;;;;;;;18.75;8.18;;;;;;;;;;5022265;28;20064;-65
2021/06/23 07:33:38;;;;;;;16.80;8.57;;;;;;;;;;5022125;28;20025;-65
2021/06/23 07:38:49;;;;;;;14.88;7.80;;;;;;;;;;5026778;28;20043;-65
2021/06/23 07:41:15;;;;;;;16.65;8.23;;;;;;;;;;5022898;28;20033;-65
2021/06/23 07:43:41;;;;;;;19.02;8.57;;;;;;;;;;5024383;28;20033;-65
2021/06/23 07:46:07;;;;;;;27.45;10.18;;;;;;;;;;5027370;28;20025;-65
2021/06/23 07:48:33;;;;;;;19.52;8.85;;;;;;;;;;5009894;28;20033;-65
2021/06/23 07:51:13;;;;;;;19.30;8.40;;;;;;;;;;5022165;28;20108;-65
2021/06/23 07:56:10;;;;;;;17.67;8.82;;;;;;;;;;5026466;28;20029;-64
2021/06/23 08:11:47;;;;;;;20.60;9.15;;;;;;;;;;5021241;28;20029;-66
2021/06/23 08:14:13;;;;;;;21.13;9.25;;;;;;;;;;5021038;28;20030;-65
2021/06/23 08:16:39;;;;;;;23.08;9.05;;;;;;;;;;5001806;28;20456;-66
2021/06/23 08:19:06;;;;;;;23.40;10.00;;;;;;;;;;5019795;28;20468;-66
2021/06/23 08:21:32;;;;;;;23.63;8.10;;;;;;;;;;5019415;28;20014;-65
2021/06/23 08:23:58;;;;;;;18.17;8.48;;;;;;;;;;5026548;28;20059;-66
2021/06/23 08:26:24;;;;;;;20.48;8.50;;;;;;;;;;5024713;28;20113;-65
2021/06/23 08:28:50;;;;;;;25.90;8.95;;;;;;;;;;5025617;28;20061;-65
2021/06/23 08:31:16;;;;;;;20.30;8.05;;;;;;;;;;5024713;28;20308;-66
2021/06/23 08:33:42;;;;;;;19.60;8.65;;;;;;;;;;5025356;28;20033;-65
2021/06/23 08:36:09;;;;;;;18.17;7.53;;;;;;;;;;5026790;28;20041;-66
2021/06/23 08:38:35;;;;;;;18.33;7.72;;;;;;;;;;5026093;28;20033;-65
2021/06/23 08:41:02;;;;;;;17.35;7.40;;;;;;;;;;5026523;28;20025;-65
2021/06/23 08:43:28;;;;;;;19.05;7.82;;;;;;;;;;5027266;28;20021;-66
2021/06/23 08:45:54;;;;;;;18.38;8.20;;;;;;;;;;5026191;28;20029;-66
2021/06/23 08:48:20;;;;;;;20.48;7.68;;;;;;;;;;5008273;28;20392;-65
2021/06/23 08:50:48;;;;;;;17.77;8.05;;;;;;;;;;5026158;28;20040;-65
2021/06/23 08:53:14;;;;;;;14.48;8.10;;;;;;;;;;5026350;28;20065;-65
2021/06/23 08:55:40;;;;;;;16.50;8.00;;;;;;;;;;5025612;28;20508;-65
2021/06/23 08:58:06;;;;;;;17.42;7.30;;;;;;;;;;5024732;28;20073;-65
2021/06/23 09:00:33;;;;;;;14.00;7.35;;;;;;;;;;5026229;28;20052;-65
2021/06/23 09:03:03;;;;;;;17.38;7.68;;;;;;;;;;5026292;28;20029;-66
2021/06/23 09:05:29;;;;;;;;;;;;;;;;;;5027776;28;20025;-66
2021/06/23 09:07:59;;;;;;;15.15;6.43;;;;;;;;;;5025018;28;19909;-66
2021/06/23 09:10:28;;;;;;;23.98;8.05;;;;;;;;;;5026273;28;20036;-66
2021/06/23 09:13:09;;;;;;;18.35;7.68;;;;;;;;;;5028398;28;20026;-66
2021/06/23 09:15:56;;;;;;;16.27;7.72;;;;;;;;;;5025110;28;20072;-65
2021/06/23 09:18:34;;;;;;;18.15;7.28;;;;;;;;;;5022748;28;20078;-65
2021/06/23 09:21:03;;;;;;;20.17;8.05;;;;;;;;;;5026914;28;20122;-65
2021/06/23 09:23:43;;;;;;;16.30;7.53;;;;;;;;;;5026003;28;20116;-65
2021/06/23 09:26:10;;;;;;;15.85;6.97;;;;;;;;;;4997268;28;20029;-65
2021/06/23 09:28:36;;;;;;;14.45;7.75;;;;;;;;;;5019174;28;20096;-66
2021/06/23 09:31:02;;;;;;;18.50;8.65;;;;;;;;;;5021890;28;20056;-66
2021/06/23 09:33:28;;;;;;;17.67;7.15;;;;;;;;;;5019418;28;20151;-66
2021/06/23 09:36:00;;;;;;;14.68;7.45;;;;;;;;;;5020596;28;20388;-66
2021/06/23 09:38:35;;;;;;;19.15;8.50;;;;;;;;;;5028241;28;20034;-66
2021/06/23 09:41:02;;;;;;;15.10;7.43;;;;;;;;;;5026576;28;20037;-66
2021/06/23 09:43:41;;;;;;;14.40;6.88;;;;;;;;;;5017038;28;20025;-66
2021/06/23 09:46:21;;;;;;;13.95;7.65;;;;;;;;;;5022149;28;20022;-66
2021/06/23 09:48:48;;;;;;;15.00;7.45;;;;;;;;;;5015009;28;20034;-66
2021/06/23 09:51:16;;;;;;;13.70;7.15;;;;;;;;;;5021735;28;20028;-65
2021/06/23 09:53:42;;;;;;;15.93;7.55;;;;;;;;;;5010775;28;20045;-66
2021/06/23 09:56:25;;;;;;;15.68;7.32;;;;;;;;;;5025871;28;20028;-66
2021/06/23 09:58:53;;;;;;;14.23;7.50;;;;;;;;;;5005712;28;20025;-66
2021/06/23 10:01:19;;;;;;;17.10;7.40;;;;;;;;;;5027579;28;20021;-65
2021/06/23 10:04:05;;;;;;;15.07;7.28;;;;;;;;;;5018893;28;20034;-66
2021/06/23 10:06:43;;;;;;;12.45;6.78;;;;;;;;;;5025430;28;20582;-66
2021/06/23 10:09:25;;;;;;;16.65;7.30;;;;;;;;;;5026292;28;20104;-66
2021/06/23 10:11:51;;;;;;;16.33;7.70;;;;;;;;;;5026053;28;20053;-66
2021/06/23 10:14:17;;;;;;;15.88;6.82;;;;;;;;;;5018530;28;20042;-66
2021/06/23 10:16:44;;;;;;;19.30;7.15;;;;;;;;;;5014622;28;20029;-66
2021/06/23 10:19:10;;;;;;;13.98;7.50;;;;;;;;;;5029509;28;20028;-66
2021/06/23 10:21:37;;;;;;;14.13;7.40;;;;;;;;;;5023634;28;20026;-66
2021/06/23 10:24:05;;;;;;;14.32;6.93;;;;;;;;;;5022116;28;20100;-66
2021/06/23 10:26:32;;;;;;;14.65;6.97;;;;;;;;;;5026518;28;20148;-66
2021/06/23 10:28:59;;;;;;;19.42;7.70;;;;;;;;;;5021621;28;20468;-66
2021/06/23 10:31:26;;;;;;;17.77;8.32;;;;;;;;;;5027145;28;20354;-66
2021/06/23 10:33:52;;;;;;;19.38;8.48;;;;;;;;;;5017418;28;20151;-66
2021/06/23 10:36:22;;;;;;;17.00;8.10;;;;;;;;;;5022696;28;20087;-66
2021/06/23 10:38:48;;;;;;;15.70;8.03;;;;;;;;;;5022382;28;20461;-66
2021/06/23 10:41:15;;;;;;;15.40;7.85;;;;;;;;;;5018237;28;20359;-66
2021/06/23 10:43:43;;;;;;;19.77;8.73;;;;;;;;;;5023943;28;20029;-66
2021/06/23 10:46:09;;;;;;;15.93;8.13;;;;;;;;;;5025418;28;20056;-66
2021/06/23 10:48:54;;;;;;;17.05;8.55;;;;;;;;;;5020572;28;20014;-66
2021/06/23 10:51:27;;;;;;;17.23;8.55;;;;;;;;;;5006978;28;20468;-66
2021/06/23 10:53:53;;;;;;;15.25;8.93;;;;;;;;;;5023601;28;20033;-66
2021/06/23 10:56:38;;;;;;;20.27;9.55;;;;;;;;;;5021950;28;20044;-65
2021/06/23 10:59:24;;;;;;;14.85;8.18;;;;;;;;;;5021965;28;20108;-66
2021/06/23 11:02:13;;;;;;;15.27;8.27;;;;;;;;;;5022084;28;20048;-66
2021/06/23 11:05:00;;;;;;;15.38;8.32;;;;;;;;;;5006882;28;20041;-66
2021/06/23 11:07:32;;;;;;;16.52;8.30;;;;;;;;;;5022636;28;20729;-66
2021/06/23 11:10:13;;;;;;;19.08;9.20;;;;;;;;;;5022359;28;20037;-66
2021/06/23 11:12:46;;;;;;;18.45;9.90;;;;;;;;;;5023966;28;20049;-66
2021/06/23 11:15:15;;;;;;;13.98;8.63;;;;;;;;;;5022775;28;20393;-65
2021/06/23 11:17:41;;;;;;;14.15;9.10;;;;;;;;;;5022655;28;20033;-66
2021/06/23 11:20:27;;;;;;;18.40;9.75;;;;;;;;;;5021692;28;20546;-66
2021/06/23 11:22:55;;;;;;;16.45;8.82;;;;;;;;;;5003969;28;20055;-66
2021/06/23 11:25:24;;;;;;;16.45;9.15;;;;;;;;;;5023650;28;20389;-66
2021/06/23 11:28:08;;;;;;;15.95;8.35;;;;;;;;;;5023081;28;20846;-66
2021/06/23 11:30:53;;;;;;;15.65;9.00;;;;;;;;;;5023648;28;20638;-65
2021/06/23 11:33:28;;;;;;;19.73;9.65;;;;;;;;;;5022346;28;20456;-65
2021/06/23 11:35:58;;;;;;;22.02;11.38;;;;;;;;;;5022861;28;20033;-66
2021/06/23 11:38:25;;;;;;;15.15;9.10;;;;;;;;;;5020835;28;20139;-66
2021/06/23 11:40:52;;;;;;;17.75;10.07;;;;;;;;;;5001893;28;20115;-66
2021/06/23 11:43:18;;;;;;;23.50;11.38;;;;;;;;;;5021508;28;20029;-66
2021/06/23 11:45:47;;;;;;;22.00;9.60;;;;;;;;;;5020602;28;20168;-65
2021/06/23 11:48:13;;;;;;;15.73;9.35;;;;;;;;;;5022992;28;20087;-66
2021/06/23 11:50:43;;;;;;;20.98;9.20;;;;;;;;;;5023864;28;20113;-66
2021/06/23 11:53:15;;;;;;;16.80;10.18;;;;;;;;;;5027088;28;20037;-66
2021/06/23 11:55:41;;;;;;;20.95;11.07;;;;;;;;;;5024704;28;20542;-65
2021/06/23 11:58:07;;;;;;;20.48;10.23;;;;;;;;;;5027384;28;20026;-65
2021/06/23 12:00:34;;;;;;;21.27;8.77;;;;;;;;;;5026137;28;20032;-65
2021/06/23 12:03:01;;;;;;;17.70;9.73;;;;;;;;;;5026289;28;20561;-65
2021/06/23 12:05:27;;;;;;;18.05;9.80;;;;;;;;;;5024832;28;20022;-65
2021/06/23 12:07:54;;;;;;;20.00;9.15;;;;;;;;;;5028662;28;20029;-65
2021/06/23 12:10:21;;;;;;;20.10;10.68;;;;;;;;;;5027512;28;20660;-65
2021/06/23 12:12:48;;;;;;;20.02;11.18;;;;;;;;;;5028638;28;20040;-65
2021/06/23 12:15:17;;;;;;;21.42;11.02;;;;;;;;;;5026132;28;20033;-65
2021/06/23 12:17:43;;;;;;;19.58;11.38;;;;;;;;;;5027925;28;20469;-65
2021/06/23 12:20:10;;;;;;;20.60;11.80;;;;;;;;;;5030793;28;20029;-65
2021/06/23 12:22:40;;;;;;;16.63;11.02;;;;;;;;;;5012193;28;20025;-65
2021/06/23 12:25:10;;;;;;;21.50;11.95;;;;;;;;;;5027561;28;20067;-65
2021/06/23 12:27:36;;;;;;;;;;;;;;;;;;5021776;28;20472;-65
2021/06/23 12:30:02;;;;;;;29.65;12.57;;;;;;;;;;5022516;28;19967;-65
2021/06/23 12:32:28;;;;;;;24.52;10.95;;;;;;;;;;5006726;28;20543;-65
2021/06/23 12:34:54;;;;;;;21.33;11.23;;;;;;;;;;5013064;28;20094;-65
2021/06/23 12:37:20;;;;;;;22.08;12.40;;;;;;;;;;5018828;28;20437;-65
2021/06/23 12:39:46;;;;;;;19.50;10.63;;;;;;;;;;5006167;28;20406;-66
2021/06/23 12:42:12;;;;;;;18.40;11.20;;;;;;;;;;5020433;28;20639;-65
2021/06/23 12:44:39;;;;;;;16.33;10.68;;;;;;;;;;5028114;28;20384;-66
2021/06/23 12:47:06;;;;;;;19.20;11.10;;;;;;;;;;5021758;28;20053;-65
2021/06/23 12:49:32;;;;;;;21.70;12.48;;;;;;;;;;5020958;28;20500;-65
2021/06/23 12:51:59;;;;;;;17.05;10.68;;;;;;;;;;5025064;28;20169;-66
2021/06/23 12:54:25;;;;;;;20.90;11.88;;;;;;;;;;5026074;28;20041;-66
2021/06/23 12:56:52;;;;;;;21.35;12.75;;;;;;;;;;5030671;28;20025;-65
2021/06/23 12:59:18;;;;;;;19.70;10.82;;;;;;;;;;5020840;28;20086;-65
2021/06/23 13:01:44;;;;;;;20.40;11.00;;;;;;;;;;5027099;28;20404;-66
2021/06/23 13:04:10;;;;;;;16.95;10.68;;;;;;;;;;5026435;28;20152;-66
2021/06/23 13:06:37;;;;;;;22.50;12.07;;;;;;;;;;5025627;28;20477;-66
2021/06/23 13:09:03;;;;;;;17.30;9.95;;;;;;;;;;5003159;28;20416;-66
2021/06/23 13:11:29;;;;;;;17.67;11.50;;;;;;;;;;5019396;28;20037;-65
2021/06/23 13:13:56;;;;;;;16.63;10.80;;;;;;;;;;5024891;28;20061;-66
2021/06/23 13:16:23;;;;;;;20.40;12.15;;;;;;;;;;5026444;28;20545;-65
2021/06/23 13:18:49;;;;;;;15.55;10.68;;;;;;;;;;5026518;28;20037;-66
2021/06/23 13:21:15;;;;;;;20.30;10.93;;;;;;;;;;5008920;28;20021;-65
2021/06/23 13:23:41;;;;;;;22.58;12.25;;;;;;;;;;5019305;28;20033;-66
2021/06/23 13:26:07;;;;;;;19.33;13.02;;;;;;;;;;5020335;28;20030;-65
2021/06/23 13:28:33;;;;;;;22.02;12.60;;;;;;;;;;5026074;28;20764;-66
2021/06/23 13:31:00;;;;;;;17.75;11.23;;;;;;;;;;5027081;28;20025;-66
2021/06/23 13:33:26;;;;;;;21.75;10.70;;;;;;;;;;5000440;28;20536;-65
2021/06/23 13:35:52;;;;;;;23.90;11.02;;;;;;;;;;5021725;28;20061;-66
2021/06/23 13:38:18;;;;;;;20.00;11.10;;;;;;;;;;5028515;28;20037;-66
2021/06/23 13:40:44;;;;;;;17.05;10.02;;;;;;;;;;5016533;28;20056;-66
2021/06/23 13:43:10;;;;;;;22.17;10.25;;;;;;;;;;5022418;28;20030;-66
2021/06/23 13:45:36;;;;;;;16.65;10.48;;;;;;;;;;5017995;28;20029;-66
2021/06/23 13:48:03;;;;;;;21.95;11.13;;;;;;;;;;5023825;28;20100;-65
2021/06/23 13:50:29;;;;;;;16.17;10.35;;;;;;;;;;5021116;28;20477;-65
2021/06/23 13:52:55;;;;;;;22.02;11.65;;;;;;;;;;5012748;28;20026;-66
2021/06/23 13:55:24;;;;;;;22.25;10.52;;;;;;;;;;4999165;28;20640;-66
2021/06/23 13:57:51;;;;;;;19.48;10.65;;;;;;;;;;5025239;28;20029;-66
2021/06/23 14:00:18;;;;;;;19.70;10.80;;;;;;;;;;5022500;28;20122;-66
2021/06/23 14:02:44;;;;;;;16.52;10.93;;;;;;;;;;5023724;28;20040;-66
2021/06/23 14:05:10;;;;;;;18.90;11.38;;;;;;;;;;5017526;28;20027;-65
2021/06/23 14:07:37;;;;;;;23.15;12.13;;;;;;;;;;5023281;28;20299;-66
2021/06/23 14:10:04;;;;;;;16.70;9.75;;;;;;;;;;5019163;28;20034;-66
2021/06/23 14:12:30;;;;;;;19.70;11.90;;;;;;;;;;5018588;28;20048;-65
2021/06/23 14:14:57;;;;;;;18.38;11.02;;;;;;;;;;5030061;28;20045;-66
2021/06/23 14:17:23;;;;;;;21.15;11.00;;;;;;;;;;5020235;28;20022;-65
2021/06/23 14:19:49;;;;;;;19.58;10.82;;;;;;;;;;5024797;28;20079;-65
2021/06/23 14:22:15;;;;;;;22.33;11.52;;;;;;;;;;5023871;28;20495;-66
2021/06/23 14:24:41;;;;;;;21.70;10.20;;;;;;;;;;5024531;28;20037;-66
2021/06/23 14:27:08;;;;;;;19.52;11.20;;;;;;;;;;5020413;28;20025;-66
2021/06/23 14:29:34;;;;;;;19.27;10.38;;;;;;;;;;5022596;28;20049;-66
2021/06/23 14:32:00;;;;;;;15.60;9.77;;;;;;;;;;5019594;28;20037;-66
2021/06/23 14:34:26;;;;;;;19.13;10.40;;;;;;;;;;5022753;28;20105;-65
2021/06/23 14:36:52;;;;;;;16.80;10.95;;;;;;;;;;5008512;28;20026;-66
2021/06/23 14:39:18;;;;;;;19.02;11.25;;;;;;;;;;5002072;28;20071;-66
2021/06/23 14:41:44;;;;;;;18.17;9.85;;;;;;;;;;5022628;28;20621;-65
2021/06/23 14:44:10;;;;;;;18.48;10.63;;;;;;;;;;5021476;28;20372;-66
2021/06/23 14:46:37;;;;;;;19.10;11.00;;;;;;;;;;5023527;28;20469;-65